sensor_id;sensor_type;location;lat;lon;timestamp;pressure;altitude;pressure_sealevel;temperature;humidity
59272;BME280;45043;51.068;7.026;2023-01-31T00:01:56;101326.91;;;2.00;61.12
59272;BME280;45043;51.068;7.026;2023-01-31T00:04:56;101322.88;;;1.96;60.81
59272;BME280;45043;51.068;7.026;2023-01-31T00:07:57;101314.53;;;1.91;61.31
59272;BME280;45043;51.068;7.026;2023-01-31T00:11:00;101333.34;;;1.96;61.71
59272;BME280;45043;51.068;7.026;2023-01-31T00:14:01;101323.84;;;1.95;60.77
59272;BME280;45043;51.068;7.026;2023-01-31T00:17:03;101327.06;;;1.99;61.53
59272;BME280;45043;51.068;7.026;2023-01-31T00:20:04;101331.31;;;2.00;61.39
59272;BME280;45043;51.068;7.026;2023-01-31T00:23:05;101321.94;;;1.97;60.89
59272;BME280;45043;51.068;7.026;2023-01-31T00:26:28;101322.53;;;2.12;61.12
59272;BME280;45043;51.068;7.026;2023-01-31T00:29:28;101325.03;;;2.14;60.61
59272;BME280;45043;51.068;7.026;2023-01-31T00:32:29;101322.16;;;2.17;60.76
59272;BME280;45043;51.068;7.026;2023-01-31T00:35:29;101323.81;;;2.07;60.69
59272;BME280;45043;51.068;7.026;2023-01-31T00:38:30;101323.59;;;1.98;61.09
59272;BME280;45043;51.068;7.026;2023-01-31T00:41:30;101326.91;;;2.00;61.14
59272;BME280;45043;51.068;7.026;2023-01-31T00:44:31;101324.78;;;2.06;60.97
59272;BME280;45043;51.068;7.026;2023-01-31T00:47:32;101316.44;;;2.00;60.99
59272;BME280;45043;51.068;7.026;2023-01-31T00:50:32;101327.88;;;1.99;60.87
59272;BME280;45043;51.068;7.026;2023-01-31T00:53:33;101320.25;;;1.96;61.11
59272;BME280;45043;51.068;7.026;2023-01-31T00:56:33;101311.94;;;1.91;60.55
59272;BME280;45043;51.068;7.026;2023-01-31T00:59:34;101310.97;;;1.92;60.62
59272;BME280;45043;51.068;7.026;2023-01-31T01:02:34;101308.34;;;1.92;61.06
59272;BME280;45043;51.068;7.026;2023-01-31T01:05:35;101316.81;;;1.85;60.78
59272;BME280;45043;51.068;7.026;2023-01-31T01:08:37;101323.09;;;1.82;61.18
59272;BME280;45043;51.068;7.026;2023-01-31T01:11:38;101312.88;;;1.79;61.45
59272;BME280;45043;51.068;7.026;2023-01-31T01:14:38;101323.59;;;1.76;61.22
59272;BME280;45043;51.068;7.026;2023-01-31T01:17:39;101332.16;;;1.78;61.35
59272;BME280;45043;51.068;7.026;2023-01-31T01:20:39;101321.22;;;1.73;61.27
59272;BME280;45043;51.068;7.026;2023-01-31T01:23:40;101328.69;;;1.66;61.32
59272;BME280;45043;51.068;7.026;2023-01-31T01:26:41;101318.72;;;1.60;61.15
59272;BME280;45043;51.068;7.026;2023-01-31T01:29:43;101322.00;;;1.51;61.99
59272;BME280;45043;51.068;7.026;2023-01-31T01:32:43;101318.91;;;1.46;61.72
59272;BME280;45043;51.068;7.026;2023-01-31T01:35:44;101324.84;;;1.48;61.74
59272;BME280;45043;51.068;7.026;2023-01-31T01:38:44;101328.81;;;1.53;61.32
59272;BME280;45043;51.068;7.026;2023-01-31T01:41:46;101335.22;;;1.49;61.24
59272;BME280;45043;51.068;7.026;2023-01-31T01:47:52;101326.38;;;1.28;61.75
59272;BME280;45043;51.068;7.026;2023-01-31T01:50:53;101322.53;;;1.21;62.21
59272;BME280;45043;51.068;7.026;2023-01-31T01:53:56;101323.22;;;1.12;62.43
59272;BME280;45043;51.068;7.026;2023-01-31T01:57:00;101319.88;;;1.10;61.97
59272;BME280;45043;51.068;7.026;2023-01-31T02:00:24;101320.34;;;1.03;62.34
59272;BME280;45043;51.068;7.026;2023-01-31T02:03:27;101318.66;;;1.02;62.32
59272;BME280;45043;51.068;7.026;2023-01-31T02:06:28;101315.94;;;1.04;62.59
59272;BME280;45043;51.068;7.026;2023-01-31T02:10:06;101317.00;;;1.01;62.50
59272;BME280;45043;51.068;7.026;2023-01-31T02:13:10;101319.63;;;1.01;62.37
59272;BME280;45043;51.068;7.026;2023-01-31T02:16:11;101324.88;;;1.01;62.34
59272;BME280;45043;51.068;7.026;2023-01-31T02:19:27;101318.66;;;1.02;62.60
59272;BME280;45043;51.068;7.026;2023-01-31T02:22:58;101317.38;;;1.08;62.20
59272;BME280;45043;51.068;7.026;2023-01-31T02:33:19;101316.53;;;1.07;62.11
59272;BME280;45043;51.068;7.026;2023-01-31T02:39:46;101324.69;;;1.16;61.66
59272;BME280;45043;51.068;7.026;2023-01-31T02:42:57;101321.09;;;1.17;61.98
59272;BME280;45043;51.068;7.026;2023-01-31T02:46:10;101321.72;;;1.20;61.62
59272;BME280;45043;51.068;7.026;2023-01-31T02:49:29;101327.19;;;1.28;61.70
59272;BME280;45043;51.068;7.026;2023-01-31T02:52:45;101334.00;;;1.31;61.79
59272;BME280;45043;51.068;7.026;2023-01-31T02:56:02;101337.31;;;1.33;61.83
59272;BME280;45043;51.068;7.026;2023-01-31T02:59:21;101329.72;;;1.41;61.67
59272;BME280;45043;51.068;7.026;2023-01-31T03:02:26;101316.91;;;1.49;61.10
59272;BME280;45043;51.068;7.026;2023-01-31T03:05:28;101320.00;;;1.54;61.29
59272;BME280;45043;51.068;7.026;2023-01-31T03:08:29;101319.03;;;1.55;61.30
59272;BME280;45043;51.068;7.026;2023-01-31T03:11:50;101317.97;;;1.47;60.78
59272;BME280;45043;51.068;7.026;2023-01-31T03:18:34;101306.66;;;1.46;61.30
59272;BME280;45043;51.068;7.026;2023-01-31T03:21:43;101305.00;;;1.45;61.29
59272;BME280;45043;51.068;7.026;2023-01-31T03:24:47;101306.88;;;1.43;61.17
59272;BME280;45043;51.068;7.026;2023-01-31T03:27:54;101290.69;;;1.38;61.00
59272;BME280;45043;51.068;7.026;2023-01-31T03:31:06;101289.59;;;1.29;61.32
59272;BME280;45043;51.068;7.026;2023-01-31T03:34:12;101290.69;;;1.27;61.70
59272;BME280;45043;51.068;7.026;2023-01-31T03:37:33;101287.56;;;1.22;61.56
59272;BME280;45043;51.068;7.026;2023-01-31T03:41:17;101299.44;;;1.15;61.65
59272;BME280;45043;51.068;7.026;2023-01-31T03:47:38;101300.25;;;1.15;61.89
59272;BME280;45043;51.068;7.026;2023-01-31T03:50:52;101289.91;;;1.14;62.19
59272;BME280;45043;51.068;7.026;2023-01-31T03:54:00;101286.69;;;1.10;61.45
59272;BME280;45043;51.068;7.026;2023-01-31T03:57:13;101294.28;;;1.02;62.17
59272;BME280;45043;51.068;7.026;2023-01-31T04:00:17;101296.09;;;0.89;62.30
59272;BME280;45043;51.068;7.026;2023-01-31T04:03:29;101295.97;;;0.79;62.06
59272;BME280;45043;51.068;7.026;2023-01-31T04:06:35;101291.38;;;0.70;62.63
59272;BME280;45043;51.068;7.026;2023-01-31T04:09:37;101294.22;;;0.67;62.79
59272;BME280;45043;51.068;7.026;2023-01-31T04:12:39;101283.28;;;0.62;63.28
59272;BME280;45043;51.068;7.026;2023-01-31T04:15:39;101291.47;;;0.57;62.76
59272;BME280;45043;51.068;7.026;2023-01-31T04:18:40;101278.13;;;0.49;63.27
59272;BME280;45043;51.068;7.026;2023-01-31T04:21:40;101271.03;;;0.38;63.60
59272;BME280;45043;51.068;7.026;2023-01-31T04:24:41;101261.84;;;0.32;63.00
59272;BME280;45043;51.068;7.026;2023-01-31T04:27:41;101265.19;;;0.34;63.31
59272;BME280;45043;51.068;7.026;2023-01-31T04:30:41;101264.06;;;0.26;64.16
59272;BME280;45043;51.068;7.026;2023-01-31T04:33:42;101266.06;;;0.22;64.10
59272;BME280;45043;51.068;7.026;2023-01-31T04:36:42;101262.75;;;0.20;64.21
59272;BME280;45043;51.068;7.026;2023-01-31T04:39:43;101263.16;;;0.14;64.65
59272;BME280;45043;51.068;7.026;2023-01-31T04:42:44;101263.06;;;0.16;64.27
59272;BME280;45043;51.068;7.026;2023-01-31T04:45:44;101252.94;;;0.11;64.81
59272;BME280;45043;51.068;7.026;2023-01-31T04:48:45;101260.22;;;0.19;64.59
59272;BME280;45043;51.068;7.026;2023-01-31T04:51:45;101254.78;;;0.22;64.83
59272;BME280;45043;51.068;7.026;2023-01-31T04:54:46;101253.13;;;0.21;64.87
59272;BME280;45043;51.068;7.026;2023-01-31T04:57:47;101258.69;;;0.16;65.12
59272;BME280;45043;51.068;7.026;2023-01-31T05:00:47;101255.72;;;0.21;65.04
59272;BME280;45043;51.068;7.026;2023-01-31T05:03:48;101254.91;;;0.20;64.71
59272;BME280;45043;51.068;7.026;2023-01-31T05:06:48;101257.13;;;0.14;64.98
59272;BME280;45043;51.068;7.026;2023-01-31T05:09:49;101245.00;;;0.13;65.11
59272;BME280;45043;51.068;7.026;2023-01-31T05:12:50;101246.66;;;0.14;65.43
59272;BME280;45043;51.068;7.026;2023-01-31T05:15:51;101245.50;;;0.18;65.31
59272;BME280;45043;51.068;7.026;2023-01-31T05:18:52;101249.94;;;0.28;65.77
59272;BME280;45043;51.068;7.026;2023-01-31T05:21:53;101234.94;;;0.43;65.54
59272;BME280;45043;51.068;7.026;2023-01-31T05:24:59;101241.94;;;0.67;65.24
59272;BME280;45043;51.068;7.026;2023-01-31T05:28:00;101231.06;;;0.84;65.41
59272;BME280;45043;51.068;7.026;2023-01-31T05:31:04;101229.47;;;0.94;65.18
59272;BME280;45043;51.068;7.026;2023-01-31T05:34:05;101231.84;;;0.97;64.58
59272;BME280;45043;51.068;7.026;2023-01-31T05:37:06;101234.13;;;1.02;64.98
59272;BME280;45043;51.068;7.026;2023-01-31T05:40:11;101232.56;;;1.11;64.21
59272;BME280;45043;51.068;7.026;2023-01-31T05:43:11;101226.28;;;1.13;64.78
59272;BME280;45043;51.068;7.026;2023-01-31T05:46:12;101232.38;;;1.36;64.94
59272;BME280;45043;51.068;7.026;2023-01-31T05:49:12;101224.41;;;1.83;64.92
59272;BME280;45043;51.068;7.026;2023-01-31T05:52:13;101232.19;;;2.27;64.12
59272;BME280;45043;51.068;7.026;2023-01-31T05:55:13;101235.75;;;2.59;63.49
59272;BME280;45043;51.068;7.026;2023-01-31T05:58:14;101223.94;;;2.85;62.99
59272;BME280;45043;51.068;7.026;2023-01-31T06:01:20;101224.53;;;3.10;61.49
59272;BME280;45043;51.068;7.026;2023-01-31T06:04:21;101222.50;;;3.23;61.52
59272;BME280;45043;51.068;7.026;2023-01-31T06:07:21;101210.00;;;3.36;60.95
59272;BME280;45043;51.068;7.026;2023-01-31T06:10:25;101215.19;;;3.47;60.04
59272;BME280;45043;51.068;7.026;2023-01-31T06:13:25;101215.38;;;3.56;59.64
59272;BME280;45043;51.068;7.026;2023-01-31T06:16:26;101195.06;;;3.58;59.53
59272;BME280;45043;51.068;7.026;2023-01-31T06:19:26;101208.34;;;3.66;58.84
59272;BME280;45043;51.068;7.026;2023-01-31T06:22:28;101197.84;;;3.66;58.63
59272;BME280;45043;51.068;7.026;2023-01-31T06:25:28;101207.84;;;3.72;58.59
59272;BME280;45043;51.068;7.026;2023-01-31T06:28:29;101202.16;;;3.77;57.71
59272;BME280;45043;51.068;7.026;2023-01-31T06:31:29;101201.75;;;3.81;57.70
59272;BME280;45043;51.068;7.026;2023-01-31T06:34:30;101193.75;;;3.83;57.54
59272;BME280;45043;51.068;7.026;2023-01-31T06:37:30;101197.22;;;3.83;57.03
59272;BME280;45043;51.068;7.026;2023-01-31T06:40:31;101206.50;;;3.87;57.15
59272;BME280;45043;51.068;7.026;2023-01-31T06:43:32;101201.22;;;3.87;57.20
59272;BME280;45043;51.068;7.026;2023-01-31T06:46:33;101191.69;;;3.86;56.75
59272;BME280;45043;51.068;7.026;2023-01-31T06:49:33;101188.78;;;3.80;56.69
59272;BME280;45043;51.068;7.026;2023-01-31T06:52:33;101197.47;;;3.80;56.48
59272;BME280;45043;51.068;7.026;2023-01-31T06:55:34;101211.75;;;3.87;56.48
59272;BME280;45043;51.068;7.026;2023-01-31T06:58:35;101205.66;;;3.87;56.04
59272;BME280;45043;51.068;7.026;2023-01-31T07:01:35;101204.38;;;3.81;57.05
59272;BME280;45043;51.068;7.026;2023-01-31T07:04:36;101210.91;;;3.87;56.35
59272;BME280;45043;51.068;7.026;2023-01-31T07:07:36;101219.75;;;3.86;56.20
59272;BME280;45043;51.068;7.026;2023-01-31T07:10:37;101219.63;;;3.87;55.92
59272;BME280;45043;51.068;7.026;2023-01-31T07:13:38;101219.06;;;3.93;55.61
59272;BME280;45043;51.068;7.026;2023-01-31T07:16:38;101212.44;;;3.89;55.41
59272;BME280;45043;51.068;7.026;2023-01-31T07:19:38;101227.53;;;3.87;55.71
59272;BME280;45043;51.068;7.026;2023-01-31T07:22:39;101209.34;;;3.75;55.19
59272;BME280;45043;51.068;7.026;2023-01-31T07:25:39;101221.09;;;3.70;55.94
59272;BME280;45043;51.068;7.026;2023-01-31T07:28:40;101241.38;;;3.59;55.94
59272;BME280;45043;51.068;7.026;2023-01-31T07:31:40;101230.19;;;3.57;56.30
59272;BME280;45043;51.068;7.026;2023-01-31T07:34:40;101209.81;;;3.49;56.36
59272;BME280;45043;51.068;7.026;2023-01-31T07:37:43;101212.75;;;3.56;56.23
59272;BME280;45043;51.068;7.026;2023-01-31T07:40:45;101209.44;;;3.54;55.80
59272;BME280;45043;51.068;7.026;2023-01-31T07:43:45;101194.50;;;3.54;56.21
59272;BME280;45043;51.068;7.026;2023-01-31T07:46:46;101203.91;;;3.57;55.90
59272;BME280;45043;51.068;7.026;2023-01-31T07:49:46;101193.94;;;3.51;56.24
59272;BME280;45043;51.068;7.026;2023-01-31T07:52:49;101202.22;;;3.56;56.35
59272;BME280;45043;51.068;7.026;2023-01-31T07:55:50;101195.75;;;3.60;56.44
59272;BME280;45043;51.068;7.026;2023-01-31T07:58:50;101209.84;;;3.59;55.94
59272;BME280;45043;51.068;7.026;2023-01-31T08:01:51;101194.09;;;3.59;55.98
59272;BME280;45043;51.068;7.026;2023-01-31T08:05:10;101198.09;;;3.63;55.80
59272;BME280;45043;51.068;7.026;2023-01-31T08:08:10;101188.97;;;3.57;55.70
59272;BME280;45043;51.068;7.026;2023-01-31T08:11:11;101194.25;;;3.67;55.27
59272;BME280;45043;51.068;7.026;2023-01-31T08:14:12;101200.63;;;3.74;55.28
59272;BME280;45043;51.068;7.026;2023-01-31T08:17:12;101202.84;;;3.79;55.07
59272;BME280;45043;51.068;7.026;2023-01-31T08:20:13;101201.91;;;3.80;54.98
59272;BME280;45043;51.068;7.026;2023-01-31T08:23:13;101194.03;;;3.80;55.07
59272;BME280;45043;51.068;7.026;2023-01-31T08:26:19;101191.81;;;3.75;54.39
59272;BME280;45043;51.068;7.026;2023-01-31T08:29:20;101184.31;;;3.70;53.90
59272;BME280;45043;51.068;7.026;2023-01-31T08:32:21;101175.84;;;3.67;54.52
59272;BME280;45043;51.068;7.026;2023-01-31T08:35:23;101164.78;;;3.63;54.43
59272;BME280;45043;51.068;7.026;2023-01-31T08:38:25;101185.28;;;3.69;54.40
59272;BME280;45043;51.068;7.026;2023-01-31T08:41:27;101179.19;;;3.69;54.30
59272;BME280;45043;51.068;7.026;2023-01-31T08:44:28;101166.16;;;3.67;54.49
59272;BME280;45043;51.068;7.026;2023-01-31T08:47:29;101160.53;;;3.72;54.18
59272;BME280;45043;51.068;7.026;2023-01-31T08:50:31;101168.16;;;3.75;54.01
59272;BME280;45043;51.068;7.026;2023-01-31T08:53:33;101179.59;;;3.74;54.31
59272;BME280;45043;51.068;7.026;2023-01-31T08:56:33;101176.03;;;3.75;53.77
59272;BME280;45043;51.068;7.026;2023-01-31T08:59:34;101168.16;;;3.75;53.88
59272;BME280;45043;51.068;7.026;2023-01-31T09:02:35;101173.53;;;3.73;53.82
59272;BME280;45043;51.068;7.026;2023-01-31T09:05:35;101173.78;;;3.70;54.03
59272;BME280;45043;51.068;7.026;2023-01-31T09:08:35;101161.06;;;3.66;54.26
59272;BME280;45043;51.068;7.026;2023-01-31T09:11:36;101160.22;;;3.65;54.23
59272;BME280;45043;51.068;7.026;2023-01-31T09:14:36;101161.06;;;3.66;54.52
59272;BME280;45043;51.068;7.026;2023-01-31T09:17:38;101142.41;;;3.69;54.41
59272;BME280;45043;51.068;7.026;2023-01-31T09:20:39;101136.88;;;3.72;54.69
59272;BME280;45043;51.068;7.026;2023-01-31T09:23:40;101139.50;;;3.72;54.79
59272;BME280;45043;51.068;7.026;2023-01-31T09:26:42;101128.28;;;3.70;54.98
59272;BME280;45043;51.068;7.026;2023-01-31T09:29:42;101128.75;;;3.75;55.21
59272;BME280;45043;51.068;7.026;2023-01-31T09:32:43;101138.00;;;3.79;55.40
59272;BME280;45043;51.068;7.026;2023-01-31T09:36:04;101147.28;;;3.83;55.60
59272;BME280;45043;51.068;7.026;2023-01-31T09:39:05;101151.56;;;3.84;55.77
59272;BME280;45043;51.068;7.026;2023-01-31T09:42:28;101154.59;;;3.80;55.79
59272;BME280;45043;51.068;7.026;2023-01-31T09:45:36;101139.94;;;3.77;56.87
59272;BME280;45043;51.068;7.026;2023-01-31T09:48:42;101134.00;;;3.75;56.65
59272;BME280;45043;51.068;7.026;2023-01-31T09:51:44;101134.00;;;3.75;57.04
59272;BME280;45043;51.068;7.026;2023-01-31T09:54:48;101134.00;;;3.75;57.03
59272;BME280;45043;51.068;7.026;2023-01-31T10:01:13;101131.06;;;3.78;57.49
59272;BME280;45043;51.068;7.026;2023-01-31T10:07:24;101115.47;;;3.86;57.92
59272;BME280;45043;51.068;7.026;2023-01-31T10:10:47;101108.53;;;3.85;58.00
59272;BME280;45043;51.068;7.026;2023-01-31T10:14:00;101103.53;;;3.82;57.56
59272;BME280;45043;51.068;7.026;2023-01-31T10:17:37;101113.78;;;3.85;57.68
59272;BME280;45043;51.068;7.026;2023-01-31T10:20:45;101105.22;;;3.83;57.31
59272;BME280;45043;51.068;7.026;2023-01-31T10:24:10;101104.97;;;3.86;57.85
59272;BME280;45043;51.068;7.026;2023-01-31T10:27:47;101090.56;;;3.90;57.32
59272;BME280;45043;51.068;7.026;2023-01-31T10:34:18;101078.69;;;3.86;57.54
59272;BME280;45043;51.068;7.026;2023-01-31T10:37:33;101073.41;;;3.86;57.85
59272;BME280;45043;51.068;7.026;2023-01-31T10:40:36;101089.44;;;3.93;57.64
59272;BME280;45043;51.068;7.026;2023-01-31T10:43:43;101067.03;;;3.99;57.73
59272;BME280;45043;51.068;7.026;2023-01-31T10:46:47;101065.50;;;3.96;58.36
59272;BME280;45043;51.068;7.026;2023-01-31T10:49:50;101055.81;;;3.96;58.06
59272;BME280;45043;51.068;7.026;2023-01-31T10:56:27;101034.53;;;4.00;57.93
59272;BME280;45043;51.068;7.026;2023-01-31T10:59:33;101032.03;;;3.98;57.75
59272;BME280;45043;51.068;7.026;2023-01-31T11:02:37;101061.22;;;4.05;58.11
59272;BME280;45043;51.068;7.026;2023-01-31T11:05:57;101055.44;;;4.01;57.81
59272;BME280;45043;51.068;7.026;2023-01-31T11:08:59;101025.81;;;3.99;57.77
59272;BME280;45043;51.068;7.026;2023-01-31T11:12:03;101024.16;;;3.69;57.35
59272;BME280;45043;51.068;7.026;2023-01-31T11:15:13;101036.28;;;3.41;58.24
59272;BME280;45043;51.068;7.026;2023-01-31T11:21:30;101018.66;;;3.12;59.45
59272;BME280;45043;51.068;7.026;2023-01-31T11:24:33;101005.34;;;3.04;59.37
59272;BME280;45043;51.068;7.026;2023-01-31T11:27:39;101001.22;;;3.02;59.53
59272;BME280;45043;51.068;7.026;2023-01-31T11:30:41;100996.34;;;2.97;59.65
59272;BME280;45043;51.068;7.026;2023-01-31T11:34:20;101020.94;;;2.86;60.33
59272;BME280;45043;51.068;7.026;2023-01-31T11:37:20;101015.63;;;2.76;60.50
59272;BME280;45043;51.068;7.026;2023-01-31T11:40:27;100982.06;;;2.70;60.60
59272;BME280;45043;51.068;7.026;2023-01-31T11:43:31;100997.94;;;2.69;61.15
59272;BME280;45043;51.068;7.026;2023-01-31T11:46:41;101000.97;;;2.64;61.12
59272;BME280;45043;51.068;7.026;2023-01-31T11:49:41;100988.78;;;2.63;61.32
59272;BME280;45043;51.068;7.026;2023-01-31T11:52:42;100957.03;;;2.57;61.30
59272;BME280;45043;51.068;7.026;2023-01-31T11:55:43;100979.84;;;2.66;61.49
59272;BME280;45043;51.068;7.026;2023-01-31T11:58:45;100966.19;;;2.72;61.68
59272;BME280;45043;51.068;7.026;2023-01-31T12:01:50;100952.81;;;2.75;61.67
59272;BME280;45043;51.068;7.026;2023-01-31T12:04:52;100958.59;;;2.79;61.71
59272;BME280;45043;51.068;7.026;2023-01-31T12:07:54;100981.38;;;2.78;61.75
59272;BME280;45043;51.068;7.026;2023-01-31T12:10:56;100962.59;;;2.73;61.99
59272;BME280;45043;51.068;7.026;2023-01-31T12:14:13;100953.34;;;2.69;61.98
59272;BME280;45043;51.068;7.026;2023-01-31T12:17:16;100949.63;;;2.71;61.79
59272;BME280;45043;51.068;7.026;2023-01-31T12:37:01;100937.72;;;2.67;63.04
59272;BME280;45043;51.068;7.026;2023-01-31T12:47:09;100939.41;;;2.78;63.36
59272;BME280;45043;51.068;7.026;2023-01-31T12:53:46;100967.31;;;2.79;64.06
59272;BME280;45043;51.068;7.026;2023-01-31T13:03:37;100941.91;;;2.80;64.53
59272;BME280;45043;51.068;7.026;2023-01-31T13:06:47;100951.84;;;2.76;65.12
59272;BME280;45043;51.068;7.026;2023-01-31T13:09:50;100952.09;;;2.73;65.15
59272;BME280;45043;51.068;7.026;2023-01-31T13:12:54;100945.31;;;2.70;65.10
59272;BME280;45043;51.068;7.026;2023-01-31T13:16:10;100914.97;;;2.68;65.73
59272;BME280;45043;51.068;7.026;2023-01-31T13:19:24;100969.47;;;2.64;65.41
59272;BME280;45043;51.068;7.026;2023-01-31T13:22:41;100929.44;;;2.62;65.86
59272;BME280;45043;51.068;7.026;2023-01-31T13:25:55;100962.69;;;2.62;66.55
59272;BME280;45043;51.068;7.026;2023-01-31T13:29:13;100931.53;;;2.68;66.30
59272;BME280;45043;51.068;7.026;2023-01-31T13:35:36;100925.72;;;2.65;66.35
59272;BME280;45043;51.068;7.026;2023-01-31T13:38:42;100910.91;;;2.64;66.38
59272;BME280;45043;51.068;7.026;2023-01-31T13:41:43;100915.91;;;2.67;66.36
59272;BME280;45043;51.068;7.026;2023-01-31T13:44:46;100926.97;;;2.70;66.51
59272;BME280;45043;51.068;7.026;2023-01-31T13:47:57;100912.03;;;2.71;66.73
59272;BME280;45043;51.068;7.026;2023-01-31T13:51:16;100933.75;;;2.73;67.04
59272;BME280;45043;51.068;7.026;2023-01-31T13:54:24;100908.34;;;2.73;67.36
59272;BME280;45043;51.068;7.026;2023-01-31T13:57:30;100913.72;;;2.72;67.82
59272;BME280;45043;51.068;7.026;2023-01-31T14:00:39;100941.56;;;2.63;68.51
59272;BME280;45043;51.068;7.026;2023-01-31T14:07:16;100934.91;;;2.49;69.02
59272;BME280;45043;51.068;7.026;2023-01-31T14:13:37;100919.44;;;2.46;69.79
59272;BME280;45043;51.068;7.026;2023-01-31T14:16:40;100918.72;;;2.44;69.87
59272;BME280;45043;51.068;7.026;2023-01-31T14:29:41;100917.03;;;2.34;71.24
59272;BME280;45043;51.068;7.026;2023-01-31T14:32:48;100902.00;;;2.36;71.59
59272;BME280;45043;51.068;7.026;2023-01-31T14:39:29;100912.19;;;2.29;71.85
59272;BME280;45043;51.068;7.026;2023-01-31T14:42:47;100905.03;;;2.31;71.87
59272;BME280;45043;51.068;7.026;2023-01-31T14:49:42;100901.69;;;2.29;72.48
59272;BME280;45043;51.068;7.026;2023-01-31T14:57:05;100916.47;;;2.30;72.93
59272;BME280;45043;51.068;7.026;2023-01-31T15:00:14;100913.84;;;2.30;73.01
59272;BME280;45043;51.068;7.026;2023-01-31T15:03:19;100922.41;;;2.32;73.26
59272;BME280;45043;51.068;7.026;2023-01-31T15:06:31;100902.28;;;2.33;73.06
59272;BME280;45043;51.068;7.026;2023-01-31T15:09:38;100895.13;;;2.35;73.38
59272;BME280;45043;51.068;7.026;2023-01-31T15:15:54;100900.06;;;2.28;73.75
59272;BME280;45043;51.068;7.026;2023-01-31T15:19:05;100907.66;;;2.31;73.87
59272;BME280;45043;51.068;7.026;2023-01-31T15:22:08;100925.03;;;2.32;74.18
59272;BME280;45043;51.068;7.026;2023-01-31T15:25:22;100925.19;;;2.31;74.06
59272;BME280;45043;51.068;7.026;2023-01-31T15:28:27;100925.28;;;2.29;73.96
59272;BME280;45043;51.068;7.026;2023-01-31T15:31:41;100934.97;;;2.28;73.99
59272;BME280;45043;51.068;7.026;2023-01-31T15:34:53;100943.66;;;2.29;74.75
59272;BME280;45043;51.068;7.026;2023-01-31T15:38:21;100931.50;;;2.28;74.69
59272;BME280;45043;51.068;7.026;2023-01-31T15:44:37;100926.84;;;2.32;74.79
59272;BME280;45043;51.068;7.026;2023-01-31T15:47:38;100943.13;;;2.35;74.59
59272;BME280;45043;51.068;7.026;2023-01-31T15:50:51;100947.41;;;2.36;75.14
59272;BME280;45043;51.068;7.026;2023-01-31T15:54:05;100933.06;;;2.40;74.73
59272;BME280;45043;51.068;7.026;2023-01-31T15:57:12;100923.72;;;2.47;75.06
59272;BME280;45043;51.068;7.026;2023-01-31T16:00:32;100940.16;;;2.49;74.95
59272;BME280;45043;51.068;7.026;2023-01-31T16:03:38;100936.69;;;2.49;75.12
59272;BME280;45043;51.068;7.026;2023-01-31T16:06:39;100930.25;;;2.53;75.19
59272;BME280;45043;51.068;7.026;2023-01-31T16:09:40;100944.84;;;2.56;75.03
59272;BME280;45043;51.068;7.026;2023-01-31T16:12:44;100961.88;;;2.61;74.65
59272;BME280;45043;51.068;7.026;2023-01-31T16:15:46;100948.50;;;2.64;74.56
59272;BME280;45043;51.068;7.026;2023-01-31T16:18:51;100950.25;;;2.64;74.76
59272;BME280;45043;51.068;7.026;2023-01-31T16:21:53;100953.19;;;2.70;74.66
59272;BME280;45043;51.068;7.026;2023-01-31T16:24:58;100952.53;;;2.78;74.58
59272;BME280;45043;51.068;7.026;2023-01-31T16:28:03;100969.81;;;2.81;74.67
59272;BME280;45043;51.068;7.026;2023-01-31T16:31:09;100953.66;;;2.85;74.25
59272;BME280;45043;51.068;7.026;2023-01-31T16:34:28;100951.59;;;2.89;74.68
59272;BME280;45043;51.068;7.026;2023-01-31T16:37:38;100971.63;;;2.90;73.85
59272;BME280;45043;51.068;7.026;2023-01-31T16:40:48;100969.69;;;2.92;74.45
59272;BME280;45043;51.068;7.026;2023-01-31T16:43:50;100973.59;;;2.97;74.08
59272;BME280;45043;51.068;7.026;2023-01-31T16:46:51;100997.06;;;2.99;74.18
59272;BME280;45043;51.068;7.026;2023-01-31T16:53:29;100996.41;;;3.07;74.03
59272;BME280;45043;51.068;7.026;2023-01-31T16:56:29;100992.22;;;3.04;74.15
59272;BME280;45043;51.068;7.026;2023-01-31T17:02:39;101001.13;;;3.13;74.07
59272;BME280;45043;51.068;7.026;2023-01-31T17:05:42;100995.03;;;3.22;73.47
59272;BME280;45043;51.068;7.026;2023-01-31T17:08:44;101007.19;;;3.23;73.75
59272;BME280;45043;51.068;7.026;2023-01-31T17:11:45;100996.44;;;3.26;73.29
59272;BME280;45043;51.068;7.026;2023-01-31T17:14:46;100994.50;;;3.28;73.35
59272;BME280;45043;51.068;7.026;2023-01-31T17:17:46;100996.16;;;3.29;73.42
59272;BME280;45043;51.068;7.026;2023-01-31T17:20:48;101013.31;;;3.33;73.32
59272;BME280;45043;51.068;7.026;2023-01-31T17:23:50;101000.72;;;3.37;73.13
59272;BME280;45043;51.068;7.026;2023-01-31T17:26:50;100984.16;;;3.36;72.99
59272;BME280;45043;51.068;7.026;2023-01-31T17:29:50;101004.34;;;3.36;72.90
59272;BME280;45043;51.068;7.026;2023-01-31T17:32:51;100999.19;;;3.34;73.08
59272;BME280;45043;51.068;7.026;2023-01-31T17:35:52;100997.03;;;3.39;73.16
59272;BME280;45043;51.068;7.026;2023-01-31T17:38:53;101003.94;;;3.40;72.93
59272;BME280;45043;51.068;7.026;2023-01-31T17:41:53;101002.84;;;3.43;72.81
59272;BME280;45043;51.068;7.026;2023-01-31T17:44:53;101006.72;;;3.39;72.65
59272;BME280;45043;51.068;7.026;2023-01-31T17:47:54;100997.44;;;3.44;72.75
59272;BME280;45043;51.068;7.026;2023-01-31T17:50:55;101011.69;;;3.52;72.21
59272;BME280;45043;51.068;7.026;2023-01-31T17:53:55;101004.53;;;3.54;72.49
59272;BME280;45043;51.068;7.026;2023-01-31T17:56:56;100980.59;;;3.57;72.02
59272;BME280;45043;51.068;7.026;2023-01-31T17:59:56;100954.88;;;3.51;71.79
59272;BME280;45043;51.068;7.026;2023-01-31T18:02:57;100958.88;;;3.55;72.03
59272;BME280;45043;51.068;7.026;2023-01-31T18:06:04;100971.03;;;3.56;71.93
59272;BME280;45043;51.068;7.026;2023-01-31T18:09:06;100969.81;;;3.50;71.45
59272;BME280;45043;51.068;7.026;2023-01-31T18:12:09;100975.19;;;3.39;72.13
59272;BME280;45043;51.068;7.026;2023-01-31T18:15:15;100970.59;;;3.31;72.56